sensor_id;sensor_type;location;lat;lon;timestamp;pressure;altitude;pressure_sealevel;temperature;humidity
77574;BME280;66710;48.868;9.080;2023-03-05T00:01:24;98333.25;;;1.96;72.21
77574;BME280;66710;48.868;9.080;2023-03-05T00:03:51;98325.59;;;1.99;72.05
77574;BME280;66710;48.868;9.080;2023-03-05T00:06:21;98323.53;;;2.01;72.07
77574;BME280;66710;48.868;9.080;2023-03-05T00:08:47;98326.66;;;1.98;72.67
77574;BME280;66710;48.868;9.080;2023-03-05T00:11:13;98328.50;;;1.98;73.23
77574;BME280;66710;48.868;9.080;2023-03-05T00:13:39;98327.25;;;2.00;72.11
77574;BME280;66710;48.868;9.080;2023-03-05T00:16:07;98328.06;;;2.01;72.56
77574;BME280;66710;48.868;9.080;2023-03-05T00:18:33;98324.56;;;2.00;73.02
77574;BME280;66710;48.868;9.080;2023-03-05T00:20:59;98327.47;;;1.99;72.64
77574;BME280;66710;48.868;9.080;2023-03-05T00:23:24;98325.59;;;1.99;72.94
77574;BME280;66710;48.868;9.080;2023-03-05T00:25:50;98319.41;;;1.99;72.90
77574;BME280;66710;48.868;9.080;2023-03-05T00:28:16;98324.97;;;1.97;73.59
77574;BME280;66710;48.868;9.080;2023-03-05T00:30:42;98320.88;;;1.95;73.67
77574;BME280;66710;48.868;9.080;2023-03-05T00:33:08;98324.56;;;1.94;73.90
77574;BME280;66710;48.868;9.080;2023-03-05T00:35:41;98316.50;;;1.94;73.38
77574;BME280;66710;48.868;9.080;2023-03-05T00:38:07;98309.72;;;1.91;73.75
77574;BME280;66710;48.868;9.080;2023-03-05T00:40:37;98317.34;;;1.94;74.08
77574;BME280;66710;48.868;9.080;2023-03-05T00:43:03;98311.75;;;1.96;73.31
77574;BME280;66710;48.868;9.080;2023-03-05T00:45:29;98316.09;;;1.97;73.08
77574;BME280;66710;48.868;9.080;2023-03-05T00:47:54;98299.97;;;2.03;72.31
77574;BME280;66710;48.868;9.080;2023-03-05T00:50:20;98307.84;;;2.05;73.12
77574;BME280;66710;48.868;9.080;2023-03-05T00:52:45;98301.59;;;2.04;73.01
77574;BME280;66710;48.868;9.080;2023-03-05T00:55:10;98302.47;;;2.05;73.09
77574;BME280;66710;48.868;9.080;2023-03-05T00:57:36;98302.00;;;2.08;73.17
77574;BME280;66710;48.868;9.080;2023-03-05T01:00:02;98299.09;;;2.16;71.95
77574;BME280;66710;48.868;9.080;2023-03-05T01:02:28;98296.22;;;2.11;72.21
77574;BME280;66710;48.868;9.080;2023-03-05T01:04:53;98290.63;;;2.19;71.71
77574;BME280;66710;48.868;9.080;2023-03-05T01:07:18;98294.16;;;2.06;73.29
77574;BME280;66710;48.868;9.080;2023-03-05T01:09:43;98290.03;;;2.11;73.32
77574;BME280;66710;48.868;9.080;2023-03-05T01:12:09;98289.44;;;2.08;73.16
77574;BME280;66710;48.868;9.080;2023-03-05T01:14:34;98288.38;;;2.03;73.42
77574;BME280;66710;48.868;9.080;2023-03-05T01:17:00;98289.03;;;2.05;73.89
77574;BME280;66710;48.868;9.080;2023-03-05T01:19:26;98281.97;;;2.11;73.85
77574;BME280;66710;48.868;9.080;2023-03-05T01:21:51;98275.78;;;2.03;73.70
77574;BME280;66710;48.868;9.080;2023-03-05T01:24:18;98275.78;;;2.03;74.68
77574;BME280;66710;48.868;9.080;2023-03-05T01:26:43;98278.88;;;2.07;74.12
77574;BME280;66710;48.868;9.080;2023-03-05T01:29:08;98272.91;;;2.05;74.46
77574;BME280;66710;48.868;9.080;2023-03-05T01:31:34;98274.94;;;2.03;75.90
77574;BME280;66710;48.868;9.080;2023-03-05T01:33:59;98261.50;;;2.03;75.33
77574;BME280;66710;48.868;9.080;2023-03-05T01:36:25;98266.88;;;2.03;75.25
77574;BME280;66710;48.868;9.080;2023-03-05T01:38:50;98262.16;;;1.98;74.97
77574;BME280;66710;48.868;9.080;2023-03-05T01:41:17;98259.28;;;1.93;75.63
77574;BME280;66710;48.868;9.080;2023-03-05T01:43:43;98255.19;;;1.84;76.13
77574;BME280;66710;48.868;9.080;2023-03-05T01:48:55;98250.81;;;1.96;75.03
77574;BME280;66710;48.868;9.080;2023-03-05T01:51:24;98252.03;;;1.94;75.33
77574;BME280;66710;48.868;9.080;2023-03-05T01:53:51;98251.63;;;2.03;75.95
77574;BME280;66710;48.868;9.080;2023-03-05T01:56:18;98244.19;;;1.99;75.35
77574;BME280;66710;48.868;9.080;2023-03-05T01:58:44;98243.38;;;1.98;75.89
77574;BME280;66710;48.868;9.080;2023-03-05T02:01:10;98235.50;;;2.03;75.34
77574;BME280;66710;48.868;9.080;2023-03-05T02:03:35;98233.03;;;2.02;75.53
77574;BME280;66710;48.868;9.080;2023-03-05T02:06:02;98235.09;;;2.00;75.63
77574;BME280;66710;48.868;9.080;2023-03-05T02:08:27;98227.44;;;2.03;75.54
77574;BME280;66710;48.868;9.080;2023-03-05T02:10:56;98224.53;;;2.05;75.91
77574;BME280;66710;48.868;9.080;2023-03-05T02:13:23;98218.13;;;2.06;75.68
77574;BME280;66710;48.868;9.080;2023-03-05T02:15:51;98223.69;;;2.11;74.60
77574;BME280;66710;48.868;9.080;2023-03-05T02:18:18;98217.50;;;2.11;75.84
77574;BME280;66710;48.868;9.080;2023-03-05T02:21:03;98222.03;;;2.10;75.49
77574;BME280;66710;48.868;9.080;2023-03-05T02:23:31;98218.94;;;2.06;76.42
77574;BME280;66710;48.868;9.080;2023-03-05T02:25:58;98220.38;;;2.09;76.60
77574;BME280;66710;48.868;9.080;2023-03-05T02:28:31;98213.34;;;2.08;76.58
77574;BME280;66710;48.868;9.080;2023-03-05T02:30:57;98210.66;;;2.08;76.43
77574;BME280;66710;48.868;9.080;2023-03-05T02:33:23;98214.59;;;2.12;77.05
77574;BME280;66710;48.868;9.080;2023-03-05T02:35:48;98210.22;;;2.18;75.93
77574;BME280;66710;48.868;9.080;2023-03-05T02:38:15;98207.34;;;2.13;76.55
77574;BME280;66710;48.868;9.080;2023-03-05T02:40:41;98206.53;;;2.12;76.79
77574;BME280;66710;48.868;9.080;2023-03-05T02:43:07;98206.13;;;2.08;77.01
77574;BME280;66710;48.868;9.080;2023-03-05T02:45:33;98196.41;;;2.07;77.45
77574;BME280;66710;48.868;9.080;2023-03-05T02:47:58;98198.91;;;2.02;77.37
77574;BME280;66710;48.868;9.080;2023-03-05T02:50:25;98198.28;;;2.00;78.26
77574;BME280;66710;48.868;9.080;2023-03-05T02:52:51;98196.81;;;2.04;77.54
77574;BME280;66710;48.868;9.080;2023-03-05T02:55:16;98191.06;;;2.01;78.12
77574;BME280;66710;48.868;9.080;2023-03-05T02:57:42;98186.94;;;2.05;78.16
77574;BME280;66710;48.868;9.080;2023-03-05T03:00:08;98187.94;;;2.11;77.41
77574;BME280;66710;48.868;9.080;2023-03-05T03:02:33;98179.06;;;2.10;78.09
77574;BME280;66710;48.868;9.080;2023-03-05T03:04:59;98179.88;;;2.11;78.25
77574;BME280;66710;48.868;9.080;2023-03-05T03:07:24;98175.31;;;2.11;77.73
77574;BME280;66710;48.868;9.080;2023-03-05T03:09:50;98173.03;;;2.08;78.43
77574;BME280;66710;48.868;9.080;2023-03-05T03:12:15;98182.38;;;2.05;78.02
77574;BME280;66710;48.868;9.080;2023-03-05T03:14:41;98172.84;;;2.09;78.23
77574;BME280;66710;48.868;9.080;2023-03-05T03:17:08;98171.84;;;2.04;78.07
77574;BME280;66710;48.868;9.080;2023-03-05T03:19:35;98163.53;;;2.12;77.85
77574;BME280;66710;48.868;9.080;2023-03-05T03:22:01;98172.03;;;2.09;78.12
77574;BME280;66710;48.868;9.080;2023-03-05T03:24:29;98166.47;;;2.04;78.33
77574;BME280;66710;48.868;9.080;2023-03-05T03:26:54;98163.56;;;2.05;78.33
77574;BME280;66710;48.868;9.080;2023-03-05T03:29:20;98161.28;;;2.09;77.25
77574;BME280;66710;48.868;9.080;2023-03-05T03:31:45;98157.38;;;2.05;77.95
77574;BME280;66710;48.868;9.080;2023-03-05T03:34:14;98156.91;;;2.08;77.60
77574;BME280;66710;48.868;9.080;2023-03-05T03:36:41;98156.09;;;2.07;77.73
77574;BME280;66710;48.868;9.080;2023-03-05T03:39:07;98146.00;;;2.03;77.78
77574;BME280;66710;48.868;9.080;2023-03-05T03:41:35;98147.22;;;2.07;77.28
77574;BME280;66710;48.868;9.080;2023-03-05T03:44:00;98141.66;;;2.08;77.75
77574;BME280;66710;48.868;9.080;2023-03-05T03:46:27;98145.56;;;2.06;77.71
77574;BME280;66710;48.868;9.080;2023-03-05T03:48:53;98145.56;;;2.06;77.09
77574;BME280;66710;48.868;9.080;2023-03-05T03:51:18;98141.47;;;2.03;76.91
77574;BME280;66710;48.868;9.080;2023-03-05T03:53:43;98133.63;;;2.02;77.69
77574;BME280;66710;48.868;9.080;2023-03-05T03:56:08;98137.91;;;2.09;76.42
77574;BME280;66710;48.868;9.080;2023-03-05T03:58:34;98133.59;;;2.08;76.33
77574;BME280;66710;48.868;9.080;2023-03-05T04:00:59;98131.31;;;2.05;76.58
77574;BME280;66710;48.868;9.080;2023-03-05T04:03:25;98136.88;;;2.11;75.81
77574;BME280;66710;48.868;9.080;2023-03-05T04:05:50;98128.03;;;2.03;76.89
77574;BME280;66710;48.868;9.080;2023-03-05T04:08:16;98131.75;;;2.02;76.82
77574;BME280;66710;48.868;9.080;2023-03-05T04:10:41;98132.78;;;2.01;77.16
77574;BME280;66710;48.868;9.080;2023-03-05T04:13:07;98132.78;;;2.01;76.42
77574;BME280;66710;48.868;9.080;2023-03-05T04:15:32;98125.13;;;2.05;76.25
77574;BME280;66710;48.868;9.080;2023-03-05T04:17:58;98123.25;;;2.05;76.11
77574;BME280;66710;48.868;9.080;2023-03-05T04:20:23;98124.94;;;2.00;77.07
77574;BME280;66710;48.868;9.080;2023-03-05T04:22:49;98118.31;;;2.02;76.70
77574;BME280;66710;48.868;9.080;2023-03-05T04:25:14;98118.34;;;1.96;76.97
77574;BME280;66710;48.868;9.080;2023-03-05T04:27:40;98116.09;;;1.93;76.63
77574;BME280;66710;48.868;9.080;2023-03-05T04:30:07;98120.81;;;1.97;76.33
77574;BME280;66710;48.868;9.080;2023-03-05T04:32:32;98118.78;;;1.93;76.88
77574;BME280;66710;48.868;9.080;2023-03-05T04:34:58;98116.09;;;1.93;76.70
77574;BME280;66710;48.868;9.080;2023-03-05T04:37:24;98119.00;;;1.91;76.95
77574;BME280;66710;48.868;9.080;2023-03-05T04:39:51;98112.16;;;1.88;77.33
77574;BME280;66710;48.868;9.080;2023-03-05T04:42:16;98111.56;;;1.86;77.36
77574;BME280;66710;48.868;9.080;2023-03-05T04:44:44;98111.97;;;1.90;76.79
77574;BME280;66710;48.868;9.080;2023-03-05T04:47:10;98112.56;;;1.92;76.81
77574;BME280;66710;48.868;9.080;2023-03-05T04:49:35;98117.31;;;1.97;76.42
77574;BME280;66710;48.868;9.080;2023-03-05T04:52:00;98112.78;;;1.90;76.83
77574;BME280;66710;48.868;9.080;2023-03-05T04:54:26;98111.75;;;1.92;76.74
77574;BME280;66710;48.868;9.080;2023-03-05T04:56:52;98112.38;;;1.87;77.47
77574;BME280;66710;48.868;9.080;2023-03-05T04:59:17;98105.16;;;1.87;76.47
77574;BME280;66710;48.868;9.080;2023-03-05T05:01:42;98100.41;;;1.89;76.74
77574;BME280;66710;48.868;9.080;2023-03-05T05:04:08;98105.56;;;1.91;76.81
77574;BME280;66710;48.868;9.080;2023-03-05T05:06:33;98105.97;;;1.88;76.44
77574;BME280;66710;48.868;9.080;2023-03-05T05:08:59;98103.91;;;1.90;76.66
77574;BME280;66710;48.868;9.080;2023-03-05T05:11:24;98100.81;;;1.86;76.81
77574;BME280;66710;48.868;9.080;2023-03-05T05:13:50;98110.53;;;1.87;76.81
77574;BME280;66710;48.868;9.080;2023-03-05T05:16:15;98098.34;;;1.85;77.34
77574;BME280;66710;48.868;9.080;2023-03-05T05:18:41;98099.19;;;1.85;77.18
77574;BME280;66710;48.868;9.080;2023-03-05T05:21:11;98096.50;;;1.85;76.84
77574;BME280;66710;48.868;9.080;2023-03-05T05:23:37;98092.16;;;1.84;76.93
77574;BME280;66710;48.868;9.080;2023-03-05T05:26:04;98098.13;;;1.86;77.26
77574;BME280;66710;48.868;9.080;2023-03-05T05:28:31;98097.53;;;1.84;77.28
77574;BME280;66710;48.868;9.080;2023-03-05T05:30:56;98098.56;;;1.83;77.55
77574;BME280;66710;48.868;9.080;2023-03-05T05:33:22;98100.00;;;1.86;76.98
77574;BME280;66710;48.868;9.080;2023-03-05T05:35:48;98100.44;;;1.83;77.56
77574;BME280;66710;48.868;9.080;2023-03-05T05:38:14;98100.44;;;1.83;77.43
77574;BME280;66710;48.868;9.080;2023-03-05T05:40:39;98103.72;;;1.85;76.69
77574;BME280;66710;48.868;9.080;2023-03-05T05:43:05;98100.03;;;1.79;77.55
77574;BME280;66710;48.868;9.080;2023-03-05T05:45:30;98094.44;;;1.81;76.73
77574;BME280;66710;48.868;9.080;2023-03-05T05:47:56;98102.69;;;1.86;76.99
77574;BME280;66710;48.868;9.080;2023-03-05T05:50:21;98091.16;;;1.79;77.35
77574;BME280;66710;48.868;9.080;2023-03-05T05:52:47;98099.00;;;1.80;77.04
77574;BME280;66710;48.868;9.080;2023-03-05T05:55:12;98092.75;;;1.86;76.54
77574;BME280;66710;48.868;9.080;2023-03-05T05:57:37;98088.47;;;1.79;77.35
77574;BME280;66710;48.868;9.080;2023-03-05T06:00:06;98090.28;;;1.85;76.72
77574;BME280;66710;48.868;9.080;2023-03-05T06:02:32;98094.03;;;1.84;77.35
77574;BME280;66710;48.868;9.080;2023-03-05T06:04:57;98097.75;;;1.83;77.39
77574;BME280;66710;48.868;9.080;2023-03-05T06:07:22;98093.44;;;1.82;76.68
77574;BME280;66710;48.868;9.080;2023-03-05T06:09:48;98089.69;;;1.83;77.42
77574;BME280;66710;48.868;9.080;2023-03-05T06:12:13;98093.38;;;1.88;77.41
77574;BME280;66710;48.868;9.080;2023-03-05T06:14:38;98100.19;;;1.91;77.42
77574;BME280;66710;48.868;9.080;2023-03-05T06:17:04;98091.91;;;1.93;77.11
77574;BME280;66710;48.868;9.080;2023-03-05T06:19:29;98093.75;;;1.92;77.06
77574;BME280;66710;48.868;9.080;2023-03-05T06:21:54;98092.53;;;1.95;76.70
77574;BME280;66710;48.868;9.080;2023-03-05T06:24:20;98095.00;;;1.96;76.47
77574;BME280;66710;48.868;9.080;2023-03-05T06:26:46;98099.53;;;1.96;77.10
77574;BME280;66710;48.868;9.080;2023-03-05T06:29:12;98098.19;;;2.12;76.13
77574;BME280;66710;48.868;9.080;2023-03-05T06:31:39;98096.19;;;2.07;76.24
77574;BME280;66710;48.868;9.080;2023-03-05T06:34:05;98094.31;;;2.07;75.64
77574;BME280;66710;48.868;9.080;2023-03-05T06:36:30;98087.72;;;2.03;76.59
77574;BME280;66710;48.868;9.080;2023-03-05T06:38:56;98090.41;;;2.03;76.37
77574;BME280;66710;48.868;9.080;2023-03-05T06:41:24;98090.59;;;2.08;75.58
77574;BME280;66710;48.868;9.080;2023-03-05T06:43:51;98085.66;;;2.05;75.92
77574;BME280;66710;48.868;9.080;2023-03-05T06:46:25;98083.75;;;2.13;76.05
77574;BME280;66710;48.868;9.080;2023-03-05T06:48:51;98080.66;;;2.09;76.90
77574;BME280;66710;48.868;9.080;2023-03-05T06:51:25;98078.75;;;2.16;76.37
77574;BME280;66710;48.868;9.080;2023-03-05T06:53:52;98080.84;;;2.14;75.93
77574;BME280;66710;48.868;9.080;2023-03-05T06:56:18;98085.78;;;2.17;76.14
77574;BME280;66710;48.868;9.080;2023-03-05T06:58:45;98076.88;;;2.17;76.29
77574;BME280;66710;48.868;9.080;2023-03-05T07:01:12;98081.22;;;2.18;76.07
77574;BME280;66710;48.868;9.080;2023-03-05T07:03:37;98087.81;;;2.22;76.51
77574;BME280;66710;48.868;9.080;2023-03-05T07:06:10;98076.84;;;2.23;76.16
77574;BME280;66710;48.868;9.080;2023-03-05T07:08:36;98080.34;;;2.24;76.36
77574;BME280;66710;48.868;9.080;2023-03-05T07:11:02;98081.81;;;2.26;76.00
77574;BME280;66710;48.868;9.080;2023-03-05T07:13:28;98076.22;;;2.28;75.23
77574;BME280;66710;48.868;9.080;2023-03-05T07:15:54;98076.22;;;2.28;75.68
77574;BME280;66710;48.868;9.080;2023-03-05T07:18:20;98075.53;;;2.33;75.27
77574;BME280;66710;48.868;9.080;2023-03-05T07:20:45;98079.06;;;2.33;75.27
77574;BME280;66710;48.868;9.080;2023-03-05T07:23:11;98074.72;;;2.32;75.76
77574;BME280;66710;48.868;9.080;2023-03-05T07:25:37;98075.53;;;2.33;75.64
77574;BME280;66710;48.868;9.080;2023-03-05T07:28:04;98081.69;;;2.40;75.58
77574;BME280;66710;48.868;9.080;2023-03-05T07:30:31;98069.25;;;2.45;76.94
77574;BME280;66710;48.868;9.080;2023-03-05T07:32:56;98076.09;;;2.41;76.12
77574;BME280;66710;48.868;9.080;2023-03-05T07:35:22;98076.31;;;2.40;75.26
77574;BME280;66710;48.868;9.080;2023-03-05T07:37:48;98074.69;;;2.39;74.88
77574;BME280;66710;48.868;9.080;2023-03-05T07:40:14;98076.06;;;2.48;75.77
77574;BME280;66710;48.868;9.080;2023-03-05T07:42:39;98070.25;;;2.51;75.03
77574;BME280;66710;48.868;9.080;2023-03-05T07:45:05;98066.06;;;2.55;75.33
77574;BME280;66710;48.868;9.080;2023-03-05T07:47:31;98065.22;;;2.61;75.72
77574;BME280;66710;48.868;9.080;2023-03-05T07:49:56;98072.25;;;2.56;75.59
77574;BME280;66710;48.868;9.080;2023-03-05T07:52:21;98067.94;;;2.55;75.69
77574;BME280;66710;48.868;9.080;2023-03-05T07:54:47;98070.63;;;2.55;75.62
77574;BME280;66710;48.868;9.080;2023-03-05T07:57:12;98071.63;;;2.60;75.25
77574;BME280;66710;48.868;9.080;2023-03-05T07:59:38;98070.50;;;2.68;75.73
77574;BME280;66710;48.868;9.080;2023-03-05T08:02:04;98064.31;;;2.68;74.85
77574;BME280;66710;48.868;9.080;2023-03-05T08:04:29;98067.59;;;2.70;75.09
77574;BME280;66710;48.868;9.080;2023-03-05T08:06:56;98065.50;;;2.72;74.39
77574;BME280;66710;48.868;9.080;2023-03-05T08:09:22;98061.19;;;2.71;75.04
77574;BME280;66710;48.868;9.080;2023-03-05T08:11:47;98069.03;;;2.72;75.29
77574;BME280;66710;48.868;9.080;2023-03-05T08:14:12;98072.13;;;2.76;74.45
77574;BME280;66710;48.868;9.080;2023-03-05T08:16:38;98068.06;;;2.67;74.82
77574;BME280;66710;48.868;9.080;2023-03-05T08:19:04;98065.03;;;2.81;74.80
77574;BME280;66710;48.868;9.080;2023-03-05T08:21:33;98063.53;;;2.85;74.31
77574;BME280;66710;48.868;9.080;2023-03-05T08:24:00;98062.66;;;2.92;73.96
77574;BME280;66710;48.868;9.080;2023-03-05T08:26:28;98064.22;;;2.81;73.16
77574;BME280;66710;48.868;9.080;2023-03-05T08:28:54;98060.41;;;2.89;74.11
77574;BME280;66710;48.868;9.080;2023-03-05T08:31:21;98052.13;;;2.90;74.07
77574;BME280;66710;48.868;9.080;2023-03-05T08:33:48;98060.56;;;2.94;72.83
77574;BME280;66710;48.868;9.080;2023-03-05T08:36:14;98053.69;;;2.98;73.16
77574;BME280;66710;48.868;9.080;2023-03-05T08:38:39;98057.66;;;2.95;72.63
77574;BME280;66710;48.868;9.080;2023-03-05T08:41:06;98050.06;;;3.11;72.83
77574;BME280;66710;48.868;9.080;2023-03-05T08:43:32;98054.66;;;3.03;72.22
77574;BME280;66710;48.868;9.080;2023-03-05T08:45:59;98052.28;;;3.14;72.11
77574;BME280;66710;48.868;9.080;2023-03-05T08:48:24;98042.56;;;3.13;72.12
77574;BME280;66710;48.868;9.080;2023-03-05T08:50:50;98047.13;;;3.12;71.60
77574;BME280;66710;48.868;9.080;2023-03-05T08:53:15;98046.47;;;3.17;71.65
77574;BME280;66710;48.868;9.080;2023-03-05T08:55:40;98044.50;;;3.24;72.00
77574;BME280;66710;48.868;9.080;2023-03-05T08:58:06;98046.75;;;3.27;71.78
77574;BME280;66710;48.868;9.080;2023-03-05T09:00:31;98041.09;;;3.35;71.77
77574;BME280;66710;48.868;9.080;2023-03-05T09:02:57;98042.88;;;3.41;71.69
77574;BME280;66710;48.868;9.080;2023-03-05T09:05:22;98034.63;;;3.36;71.40
77574;BME280;66710;48.868;9.080;2023-03-05T09:07:47;98039.28;;;3.48;71.64
77574;BME280;66710;48.868;9.080;2023-03-05T09:10:13;98033.81;;;3.54;71.28
77574;BME280;66710;48.868;9.080;2023-03-05T09:12:40;98039.78;;;3.56;71.21
77574;BME280;66710;48.868;9.080;2023-03-05T09:15:07;98038.44;;;3.66;71.14
77574;BME280;66710;48.868;9.080;2023-03-05T09:17:34;98035.38;;;3.62;71.77
77574;BME280;66710;48.868;9.080;2023-03-05T09:20:01;98037.66;;;3.77;71.71
77574;BME280;66710;48.868;9.080;2023-03-05T09:22:27;98031.53;;;3.70;70.86
77574;BME280;66710;48.868;9.080;2023-03-05T09:24:52;98020.03;;;3.63;70.52
77574;BME280;66710;48.868;9.080;2023-03-05T09:27:18;98028.25;;;3.68;70.42
77574;BME280;66710;48.868;9.080;2023-03-05T09:29:43;98026.88;;;3.77;69.71
77574;BME280;66710;48.868;9.080;2023-03-05T09:32:08;98024.69;;;3.55;69.99
77574;BME280;66710;48.868;9.080;2023-03-05T09:34:34;98030.66;;;3.76;69.84
77574;BME280;66710;48.868;9.080;2023-03-05T09:36:59;98013.78;;;3.80;70.17
77574;BME280;66710;48.868;9.080;2023-03-05T09:39:25;98018.44;;;3.73;69.93
77574;BME280;66710;48.868;9.080;2023-03-05T09:45:20;98006.56;;;3.63;70.47
77574;BME280;66710;48.868;9.080;2023-03-05T09:50:33;98005.28;;;3.65;70.49
77574;BME280;66710;48.868;9.080;2023-03-05T09:53:30;98004.09;;;3.61;70.21
77574;BME280;66710;48.868;9.080;2023-03-05T09:56:02;98010.91;;;3.64;69.93
77574;BME280;66710;48.868;9.080;2023-03-05T09:58:37;98005.84;;;3.55;70.06
77574;BME280;66710;48.868;9.080;2023-03-05T10:01:16;98003.94;;;3.56;70.09
77574;BME280;66710;48.868;9.080;2023-03-05T10:04:03;98010.03;;;3.51;70.41
77574;BME280;66710;48.868;9.080;2023-03-05T10:06:35;97998.06;;;3.47;70.30
77574;BME280;66710;48.868;9.080;2023-03-05T10:09:11;97993.25;;;3.68;69.91
77574;BME280;66710;48.868;9.080;2023-03-05T10:11:54;97990.75;;;3.66;69.80
77574;BME280;66710;48.868;9.080;2023-03-05T10:14:33;97991.91;;;3.58;70.27
77574;BME280;66710;48.868;9.080;2023-03-05T10:19:45;97996.47;;;3.58;69.97
77574;BME280;66710;48.868;9.080;2023-03-05T10:22:27;97997.66;;;3.62;69.18
77574;BME280;66710;48.868;9.080;2023-03-05T10:25:02;97999.13;;;3.76;69.04
77574;BME280;66710;48.868;9.080;2023-03-05T10:30:04;97991.34;;;3.68;69.34
77574;BME280;66710;48.868;9.080;2023-03-05T10:32:49;97995.63;;;3.76;69.61
77574;BME280;66710;48.868;9.080;2023-03-05T10:38:50;97983.63;;;3.72;69.01
77574;BME280;66710;48.868;9.080;2023-03-05T10:41:51;97976.25;;;3.67;69.50
77574;BME280;66710;48.868;9.080;2023-03-05T10:47:22;97973.81;;;3.47;69.71
77574;BME280;66710;48.868;9.080;2023-03-05T10:49:53;97978.16;;;3.48;69.31
77574;BME280;66710;48.868;9.080;2023-03-05T10:52:37;97968.88;;;3.44;69.63
77574;BME280;66710;48.868;9.080;2023-03-05T10:55:15;97964.13;;;3.46;70.02
77574;BME280;66710;48.868;9.080;2023-03-05T10:57:41;97965.44;;;3.37;69.65
77574;BME280;66710;48.868;9.080;2023-03-05T11:00:20;97967.34;;;3.36;70.26
77574;BME280;66710;48.868;9.080;2023-03-05T11:03:12;97956.84;;;3.47;70.63
77574;BME280;66710;48.868;9.080;2023-03-05T11:08:26;97944.06;;;3.42;70.32
77574;BME280;66710;48.868;9.080;2023-03-05T11:11:13;97940.53;;;3.60;69.90
77574;BME280;66710;48.868;9.080;2023-03-05T11:14:00;97941.06;;;3.50;70.55
77574;BME280;66710;48.868;9.080;2023-03-05T11:16:30;97942.38;;;3.59;71.11
77574;BME280;66710;48.868;9.080;2023-03-05T11:19:19;97936.50;;;3.93;70.09
77574;BME280;66710;48.868;9.080;2023-03-05T11:21:47;97935.69;;;3.92;69.79
77574;BME280;66710;48.868;9.080;2023-03-05T11:24:28;97930.16;;;3.87;68.83
77574;BME280;66710;48.868;9.080;2023-03-05T11:26:56;97925.94;;;3.91;68.92
77574;BME280;66710;48.868;9.080;2023-03-05T11:29:23;97921.94;;;3.82;68.59
77574;BME280;66710;48.868;9.080;2023-03-05T11:31:49;97929.84;;;3.95;68.32
77574;BME280;66710;48.868;9.080;2023-03-05T11:37:03;97920.19;;;3.88;66.49
77574;BME280;66710;48.868;9.080;2023-03-05T11:39:29;97924.19;;;3.97;67.05
77574;BME280;66710;48.868;9.080;2023-03-05T11:41:59;97915.16;;;3.91;67.38
77574;BME280;66710;48.868;9.080;2023-03-05T11:44:29;97916.09;;;3.85;67.15
77574;BME280;66710;48.868;9.080;2023-03-05T11:49:39;97910.16;;;4.07;67.11
77574;BME280;66710;48.868;9.080;2023-03-05T11:52:17;97906.25;;;3.91;66.64
77574;BME280;66710;48.868;9.080;2023-03-05T11:55:17;97903.94;;;4.06;67.24
77574;BME280;66710;48.868;9.080;2023-03-05T11:58:21;97898.44;;;4.01;66.34
77574;BME280;66710;48.868;9.080;2023-03-05T12:00:48;97898.41;;;4.13;67.07
77574;BME280;66710;48.868;9.080;2023-03-05T12:03:17;97890.00;;;3.97;66.29
77574;BME280;66710;48.868;9.080;2023-03-05T12:05:49;97886.72;;;3.95;65.97
77574;BME280;66710;48.868;9.080;2023-03-05T12:08:20;97883.41;;;3.93;66.22
77574;BME280;66710;48.868;9.080;2023-03-05T12:10:47;97886.81;;;4.12;65.94
77574;BME280;66710;48.868;9.080;2023-03-05T12:13:30;97881.19;;;3.90;65.26
77574;BME280;66710;48.868;9.080;2023-03-05T12:16:23;97871.59;;;3.94;65.63
77574;BME280;66710;48.868;9.080;2023-03-05T12:19:22;97868.75;;;3.89;66.11
77574;BME280;66710;48.868;9.080;2023-03-05T12:21:53;97867.59;;;3.97;65.95
77574;BME280;66710;48.868;9.080;2023-03-05T12:47:40;97823.56;;;4.15;64.28
77574;BME280;66710;48.868;9.080;2023-03-05T12:52:57;97812.38;;;4.23;65.18
77574;BME280;66710;48.868;9.080;2023-03-05T12:55:33;97818.25;;;4.32;65.09
77574;BME280;66710;48.868;9.080;2023-03-05T12:58:07;97814.63;;;4.14;64.69
77574;BME280;66710;48.868;9.080;2023-03-05T13:00:48;97812.53;;;4.05;64.95
77574;BME280;66710;48.868;9.080;2023-03-05T13:03:34;97814.88;;;4.01;65.08
77574;BME280;66710;48.868;9.080;2023-03-05T13:06:01;97804.91;;;4.02;64.95
77574;BME280;66710;48.868;9.080;2023-03-05T13:08:30;97805.03;;;3.95;65.47
77574;BME280;66710;48.868;9.080;2023-03-05T13:11:02;97802.81;;;3.92;64.74
77574;BME280;66710;48.868;9.080;2023-03-05T13:13:30;97801.53;;;3.94;64.85
77574;BME280;66710;48.868;9.080;2023-03-05T13:15:57;97805.53;;;3.92;65.64
77574;BME280;66710;48.868;9.080;2023-03-05T13:18:25;97799.88;;;3.82;66.12
77574;BME280;66710;48.868;9.080;2023-03-05T13:21:02;97797.19;;;3.82;65.93
77574;BME280;66710;48.868;9.080;2023-03-05T13:23:29;97804.31;;;3.88;66.52
77574;BME280;66710;48.868;9.080;2023-03-05T13:28:21;97805.41;;;3.87;65.92
77574;BME280;66710;48.868;9.080;2023-03-05T13:30:56;97797.53;;;3.85;65.92
77574;BME280;66710;48.868;9.080;2023-03-05T13:33:28;97798.25;;;3.80;66.03
77574;BME280;66710;48.868;9.080;2023-03-05T13:35:54;97794.38;;;3.76;66.77
77574;BME280;66710;48.868;9.080;2023-03-05T13:38:43;97794.16;;;3.78;66.58
77574;BME280;66710;48.868;9.080;2023-03-05T13:41:19;97790.38;;;3.79;66.84
77574;BME280;66710;48.868;9.080;2023-03-05T13:43:46;97785.84;;;3.79;66.91
77574;BME280;66710;48.868;9.080;2023-03-05T13:46:12;97787.44;;;3.69;67.62
77574;BME280;66710;48.868;9.080;2023-03-05T13:48:37;97779.63;;;3.67;67.27
77574;BME280;66710;48.868;9.080;2023-03-05T13:51:03;97778.44;;;3.63;67.48
77574;BME280;66710;48.868;9.080;2023-03-05T13:53:33;97783.94;;;3.56;67.85
77574;BME280;66710;48.868;9.080;2023-03-05T13:56:01;97779.72;;;3.49;68.08
77574;BME280;66710;48.868;9.080;2023-03-05T13:58:55;97774.91;;;3.51;68.08
77574;BME280;66710;48.868;9.080;2023-03-05T14:01:43;97775.13;;;3.49;67.65
77574;BME280;66710;48.868;9.080;2023-03-05T14:07:00;97763.44;;;3.44;67.42
77574;BME280;66710;48.868;9.080;2023-03-05T14:09:30;97766.69;;;3.46;68.65
77574;BME280;66710;48.868;9.080;2023-03-05T14:11:57;97766.13;;;3.44;68.35
77574;BME280;66710;48.868;9.080;2023-03-05T14:14:25;97756.16;;;3.44;68.80
77574;BME280;66710;48.868;9.080;2023-03-05T14:16:51;97754.53;;;3.43;68.73